Fort Hood, Texas
Current Conditions -  °F | °C
As of 10:56 AM on Thursday 30 Oct 2014 (Local Time) from KHLR Reporting Station
Broken Clouds Broken Clouds  
Wind Chill: 69°   Ceiling: 3800
Heat Index: 69°   Visibility: 10mi
Dew Point: 49°   Wind: 8mph
Humidity: 49%   Direction: 140°SE
Pressure: 30.17"   Gusts: NA
Location:  31.2151°N, 97.7405°W
Report Text: KHLR 301556Z 14007KT 10SM BKN038 BKN046 21/09 A3017 RMK AO2 SLP242 T02060094 $
Loading
Personal Weather Stations






























Interactive Weather Map New forecast layout! Learn more

10-Day Weather Forecast

Advertisements
Track Severe Weather on mobile